Time;durP1;ratioP1;P1;durP2;ratioP2;P2;SDS_P1;SDS_P2;PMS_P1;PMS_P2;Temp;Humidity;BMP_temperature;BMP_pressure;BME280_temperature;BME280_humidity;BME280_pressure;Samples;Min_cycle;Max_cycle;Signal;HPM_P1;HPM_P2
2023/02/01 00:00:00;;;;;;;1.85;0.45;;;31.20;69.90;;;;;;5009707;28;20120;-66
2023/02/01 00:02:27;;;;;;;4.50;0.68;;;31.40;65.20;;;;;;5012131;28;20501;-64
2023/02/01 00:04:55;;;;;;;0.82;0.50;;;31.10;67.20;;;;;;5021427;28;20049;-65
2023/02/01 00:07:22;;;;;;;3.03;0.70;;;31.30;67.80;;;;;;5015341;28;20533;-65
2023/02/01 00:09:49;;;;;;;3.75;0.60;;;31.50;69.10;;;;;;5015572;28;20026;-65
2023/02/01 00:12:17;;;;;;;3.28;0.82;;;31.60;64.70;;;;;;5015432;28;20045;-65
2023/02/01 00:14:44;;;;;;;2.13;0.68;;;31.20;66.70;;;;;;5015727;28;20091;-66
2023/02/01 00:17:11;;;;;;;2.65;0.60;;;31.20;67.30;;;;;;5014912;28;20026;-65
2023/02/01 00:19:38;;;;;;;2.92;0.93;;;31.70;74.30;;;;;;5013438;28;20021;-65
2023/02/01 00:22:06;;;;;;;3.83;0.80;;;32.10;67.90;;;;;;5013851;28;20067;-65
2023/02/01 00:24:33;;;;;;;2.38;0.68;;;32.00;64.30;;;;;;5009385;28;20063;-64
2023/02/01 00:27:00;;;;;;;2.67;1.00;;;31.80;66.10;;;;;;5018862;28;20117;-64
2023/02/01 00:29:28;;;;;;;3.60;1.13;;;31.70;65.40;;;;;;5021790;28;20079;-64
2023/02/01 00:31:55;;;;;;;3.75;0.70;;;31.30;65.20;;;;;;4994175;28;20029;-64
2023/02/01 00:34:22;;;;;;;2.60;0.82;;;30.90;66.30;;;;;;5017625;28;20108;-64
2023/02/01 00:36:50;;;;;;;5.32;0.57;;;30.60;67.40;;;;;;5020125;28;20510;-66
2023/02/01 00:39:17;;;;;;;2.47;0.77;;;30.40;66.90;;;;;;4994870;28;20049;-64
2023/02/01 00:41:45;;;;;;;3.80;0.93;;;30.40;67.70;;;;;;5023098;28;20037;-64
2023/02/01 00:44:12;;;;;;;2.83;0.80;;;30.60;68.50;;;;;;4997265;28;20061;-67
2023/02/01 00:46:39;;;;;;;1.52;0.65;;;30.70;68.70;;;;;;5016631;28;20059;-65
2023/02/01 00:49:08;;;;;;;2.42;0.90;;;30.80;67.30;;;;;;5018154;28;20540;-67
2023/02/01 00:51:36;;;;;;;3.00;0.70;;;30.80;69.20;;;;;;5007596;28;20037;-67
2023/02/01 00:54:03;;;;;;;4.80;0.90;;;31.00;66.90;;;;;;5017905;28;20109;-65
2023/02/01 00:56:31;;;;;;;2.33;0.80;;;31.20;65.40;;;;;;5008126;28;20021;-67
2023/02/01 00:58:59;;;;;;;2.85;0.77;;;31.30;67.10;;;;;;5007287;28;20057;-66
2023/02/01 01:01:28;;;;;;;3.65;1.10;;;31.50;67.00;;;;;;5008710;28;20471;-65
2023/02/01 01:03:57;;;;;;;3.40;0.82;;;31.70;65.40;;;;;;5005247;28;20030;-66
2023/02/01 01:06:27;;;;;;;1.67;0.82;;;31.70;65.80;;;;;;5005921;28;20021;-65
2023/02/01 01:08:56;;;;;;;1.38;0.70;;;31.90;66.20;;;;;;5005905;28;20037;-64
2023/02/01 01:11:26;;;;;;;3.97;0.90;;;32.10;67.80;;;;;;5003478;28;20022;-66
2023/02/01 01:13:55;;;;;;;2.25;0.85;;;32.20;63.40;;;;;;5003418;28;20054;-65
2023/02/01 01:16:24;;;;;;;3.80;0.90;;;31.90;66.20;;;;;;5007657;28;20144;-65
2023/02/01 01:18:52;;;;;;;2.85;0.73;;;31.20;64.40;;;;;;5005466;28;20142;-66
2023/02/01 01:21:20;;;;;;;5.60;1.00;;;31.20;64.60;;;;;;5010946;28;20041;-64
2023/02/01 01:23:48;;;;;;;1.73;0.70;;;31.00;68.10;;;;;;5019190;28;20032;-68
2023/02/01 01:26:24;;;;;;;6.07;0.82;;;31.00;64.70;;;;;;4997911;28;20034;-67
2023/02/01 01:28:52;;;;;;;1.90;0.90;;;31.10;67.40;;;;;;5004513;28;20532;-68
2023/02/01 01:31:20;;;;;;;2.97;0.75;;;31.10;65.80;;;;;;5010525;28;20087;-67
2023/02/01 01:33:54;;;;;;;2.40;0.82;;;31.40;71.30;;;;;;5013929;28;20497;-67
2023/02/01 01:36:22;;;;;;;1.98;0.80;;;31.80;67.80;;;;;;5011084;28;20018;-68
2023/02/01 01:38:49;;;;;;;4.03;1.60;;;32.40;66.40;;;;;;5011860;28;20029;-68
2023/02/01 01:41:22;;;;;;;2.50;1.05;;;32.40;62.80;;;;;;5016111;28;20039;-67
2023/02/01 01:43:56;;;;;;;2.58;0.80;;;32.40;62.60;;;;;;5016326;28;20061;-68
2023/02/01 01:46:26;;;;;;;1.83;0.95;;;32.40;62.10;;;;;;5023853;28;20033;-67
2023/02/01 01:49:17;;;;;;;3.08;0.85;;;32.00;64.10;;;;;;5011319;28;20471;-67
2023/02/01 01:51:57;;;;;;;3.83;0.88;;;31.40;63.80;;;;;;4994828;28;20109;-67
2023/02/01 01:54:33;;;;;;;5.55;1.33;;;31.40;65.60;;;;;;4994560;28;20037;-67
2023/02/01 01:57:12;;;;;;;3.00;1.10;;;32.00;66.30;;;;;;5012257;28;20495;-67
2023/02/01 01:59:41;;;;;;;3.05;1.00;;;32.10;64.50;;;;;;5018338;28;20026;-68
2023/02/01 02:02:09;;;;;;;2.85;0.90;;;32.10;64.10;;;;;;5021322;28;20041;-67
2023/02/01 02:04:36;;;;;;;2.17;0.82;;;32.20;63.20;;;;;;5025131;28;20022;-67
2023/02/01 02:07:10;;;;;;;5.32;1.67;;;32.30;66.10;;;;;;5020185;28;20390;-68
2023/02/01 02:09:37;;;;;;;2.67;1.20;;;32.70;64.80;;;;;;5018343;28;20026;-67
2023/02/01 02:12:05;;;;;;;4.07;1.05;;;32.70;60.50;;;;;;5020149;28;20034;-67
2023/02/01 02:14:34;;;;;;;3.30;1.25;;;33.00;62.80;;;;;;5010401;28;20429;-67
2023/02/01 02:17:10;;;;;;;4.07;1.13;;;32.90;61.00;;;;;;5015865;28;20071;-68
2023/02/01 02:20:01;;;;;;;3.25;1.30;;;32.80;63.50;;;;;;5013441;28;20048;-68
2023/02/01 02:22:52;;;;;;;2.95;1.77;;;32.90;62.00;;;;;;4999061;28;20033;-68
2023/02/01 02:25:35;;;;;;;4.97;1.08;;;32.90;59.90;;;;;;5002085;28;20034;-67
2023/02/01 02:28:23;;;;;;;4.18;1.70;;;32.60;63.90;;;;;;5013045;28;20036;-68
2023/02/01 02:31:26;;;;;;;3.97;1.30;;;32.60;60.20;;;;;;5004594;28;20038;-68
2023/02/01 02:34:21;;;;;;;5.50;1.33;;;32.70;65.40;;;;;;5014185;28;20029;-68
2023/02/01 02:37:03;;;;;;;;;;;32.70;63.20;;;;;;5012880;28;20030;-67
2023/02/01 02:39:36;;;;;;;3.03;1.20;;;33.00;65.30;;;;;;5008534;28;20428;-68
2023/02/01 02:47:56;;;;;;;2.88;1.10;;;32.20;64.40;;;;;;5014278;28;20095;-67
2023/02/01 03:05:15;;;;;;;3.38;1.23;;;30.90;71.40;;;;;;5014970;28;20510;-69
2023/02/01 03:07:46;;;;;;;4.15;1.42;;;31.10;70.10;;;;;;5023538;28;20036;-67
2023/02/01 03:10:25;;;;;;;5.72;1.23;;;31.20;67.40;;;;;;4993473;28;20153;-68
2023/02/01 03:12:56;;;;;;;4.82;1.40;;;31.00;69.50;;;;;;4999382;28;20064;-68
2023/02/01 03:15:41;;;;;;;4.90;1.17;;;31.40;71.60;;;;;;5011114;28;20034;-67
2023/02/01 03:18:22;;;;;;;5.93;1.48;;;31.10;68.40;;;;;;5024914;28;20081;-68
2023/02/01 03:20:54;;;;;;;4.78;1.00;;;31.60;69.40;;;;;;4998338;28;20076;-67
2023/02/01 03:23:25;;;;;;;4.03;1.27;;;31.30;68.40;;;;;;5010895;28;20785;-67
2023/02/01 03:25:55;;;;;;;4.00;1.20;;;31.30;69.50;;;;;;5005818;28;20025;-68
2023/02/01 03:28:26;;;;;;;3.97;1.20;;;31.10;69.00;;;;;;4996972;28;20425;-67
2023/02/01 03:30:53;;;;;;;5.63;1.20;;;31.20;69.00;;;;;;5015407;28;20080;-68
2023/02/01 03:33:25;;;;;;;5.78;1.60;;;31.10;70.50;;;;;;5013817;28;20045;-67
2023/02/01 03:35:59;;;;;;;4.28;1.80;;;31.00;68.80;;;;;;5009033;28;20100;-68
2023/02/01 03:38:40;;;;;;;5.63;1.02;;;31.10;74.40;;;;;;5008232;28;20022;-67
2023/02/01 03:41:25;;;;;;;9.95;1.75;;;31.40;70.00;;;;;;5012397;28;20030;-68
2023/02/01 03:44:16;;;;;;;2.55;1.20;;;31.60;68.60;;;;;;5015112;28;20038;-68
2023/02/01 03:46:52;;;;;;;6.28;1.42;;;31.60;68.60;;;;;;5013495;28;20024;-68
2023/02/01 03:49:43;;;;;;;5.97;1.05;;;31.40;68.90;;;;;;5000186;28;20422;-68
2023/02/01 03:52:27;;;;;;;8.05;2.30;;;31.80;68.20;;;;;;5022895;28;20087;-67
2023/02/01 03:54:56;;;;;;;5.38;1.02;;;31.80;66.60;;;;;;5016087;28;20025;-68
2023/02/01 03:57:31;;;;;;;5.28;1.50;;;31.50;68.50;;;;;;5022988;28;20426;-68
2023/02/01 04:00:11;;;;;;;4.03;1.42;;;31.20;68.20;;;;;;5012196;28;20037;-68
2023/02/01 04:02:38;;;;;;;4.22;1.35;;;31.10;69.70;;;;;;5009491;28;20035;-68
2023/02/01 04:05:06;;;;;;;6.28;0.90;;;31.00;70.00;;;;;;5024081;28;20113;-68
2023/02/01 04:07:33;;;;;;;5.68;1.10;;;31.00;69.90;;;;;;5009538;28;20030;-68
2023/02/01 04:10:00;;;;;;;2.70;0.90;;;31.20;69.90;;;;;;5021097;28;20022;-68
2023/02/01 04:12:28;;;;;;;3.05;1.05;;;31.60;69.10;;;;;;5013669;28;20033;-68
2023/02/01 04:14:55;;;;;;;4.68;0.98;;;31.60;69.20;;;;;;5026481;28;20033;-68
2023/02/01 04:17:22;;;;;;;6.80;1.10;;;31.40;68.40;;;;;;5010839;28;20722;-68
2023/02/01 04:19:50;;;;;;;4.32;1.15;;;31.50;67.60;;;;;;5020100;28;20083;-68
2023/02/01 04:22:17;;;;;;;3.92;1.23;;;31.60;67.20;;;;;;5025549;28;20038;-68
2023/02/01 04:24:44;;;;;;;4.15;1.13;;;31.50;66.60;;;;;;5012656;28;20014;-68
2023/02/01 04:27:12;;;;;;;4.70;1.00;;;31.40;67.20;;;;;;5017228;28;20071;-67
2023/02/01 04:29:39;;;;;;;5.90;1.50;;;31.00;68.80;;;;;;5019901;28;20029;-67
2023/02/01 04:32:07;;;;;;;6.32;1.15;;;30.90;68.80;;;;;;5017893;28;20030;-67
2023/02/01 04:34:34;;;;;;;3.05;1.10;;;31.00;69.60;;;;;;5011794;28;20032;-67
2023/02/01 04:37:02;;;;;;;4.35;1.00;;;30.90;68.90;;;;;;5016915;28;20120;-68
2023/02/01 04:39:29;;;;;;;7.00;1.33;;;30.60;70.10;;;;;;4998723;28;20569;-67
2023/02/01 04:41:57;;;;;;;2.47;0.73;;;30.30;71.60;;;;;;5005145;28;20045;-67
2023/02/01 04:44:24;;;;;;;8.13;1.33;;;30.30;72.00;;;;;;5003002;28;20386;-67
2023/02/01 04:46:51;;;;;;;6.80;1.00;;;30.30;73.00;;;;;;5008092;28;20080;-66
2023/02/01 04:49:21;;;;;;;3.40;0.90;;;30.60;71.90;;;;;;4999642;28;20443;-66
2023/02/01 04:51:48;;;;;;;5.78;0.90;;;30.20;71.50;;;;;;5009245;28;20033;-67
2023/02/01 04:54:16;;;;;;;2.00;1.00;;;29.70;72.60;;;;;;5014107;28;20037;-68
2023/02/01 04:56:43;;;;;;;6.07;0.82;;;29.50;75.30;;;;;;5009407;28;20084;-68
2023/02/01 04:59:12;;;;;;;2.13;0.90;;;29.70;75.30;;;;;;5008485;28;20030;-69
2023/02/01 05:01:39;;;;;;;7.07;1.08;;;29.60;76.30;;;;;;5011560;28;20045;-68
2023/02/01 05:04:07;;;;;;;4.72;1.27;;;29.50;76.60;;;;;;5010273;28;20022;-67
2023/02/01 05:06:34;;;;;;;7.25;1.30;;;29.30;77.60;;;;;;5013631;28;20037;-68
2023/02/01 05:09:01;;;;;;;4.03;0.60;;;29.30;77.40;;;;;;5010662;28;20026;-69
2023/02/01 05:14:14;;;;;;;2.63;0.95;;;29.10;80.80;;;;;;5016204;28;20044;-68
2023/02/01 05:16:41;;;;;;;4.53;1.58;;;29.40;78.30;;;;;;5007944;28;20021;-68
2023/02/01 05:19:09;;;;;;;3.72;1.13;;;29.10;80.30;;;;;;5021519;28;20061;-69
2023/02/01 05:21:36;;;;;;;6.53;1.20;;;29.10;80.00;;;;;;5022151;28;20100;-68
2023/02/01 05:24:09;;;;;;;5.65;1.40;;;29.10;81.50;;;;;;5011823;28;20057;-68
2023/02/01 05:26:38;;;;;;;8.63;1.10;;;28.60;82.60;;;;;;5017249;28;20024;-67
2023/02/01 05:29:06;;;;;;;3.58;0.93;;;28.60;84.10;;;;;;5012817;28;20037;-69
2023/02/01 05:31:33;;;;;;;2.70;0.82;;;28.60;85.30;;;;;;5005973;28;20041;-68
2023/02/01 05:34:01;;;;;;;5.22;1.27;;;28.70;85.10;;;;;;5026473;28;20091;-69
2023/02/01 05:36:28;;;;;;;5.53;1.23;;;28.90;84.40;;;;;;5011961;28;20026;-67
2023/02/01 05:38:56;;;;;;;7.13;1.48;;;28.80;84.90;;;;;;4993231;28;20053;-63
2023/02/01 05:41:23;;;;;;;7.85;1.63;;;28.80;84.10;;;;;;4999678;28;20391;-63
2023/02/01 05:43:50;;;;;;;5.38;1.10;;;28.60;83.70;;;;;;5016385;28;20160;-63
2023/02/01 05:46:18;;;;;;;3.17;0.93;;;28.60;85.20;;;;;;4993668;28;20107;-64
2023/02/01 05:48:45;;;;;;;3.15;0.80;;;28.60;84.70;;;;;;5015318;28;20036;-63
2023/02/01 05:51:13;;;;;;;2.50;1.00;;;28.30;86.90;;;;;;5003200;28;20356;-63
2023/02/01 05:53:40;;;;;;;6.22;1.00;;;28.40;88.20;;;;;;5022818;28;20112;-63
2023/02/01 05:56:08;;;;;;;3.88;1.10;;;28.40;86.60;;;;;;5022808;28;20018;-64
2023/02/01 05:58:35;;;;;;;3.58;0.80;;;28.30;87.90;;;;;;5005312;28;20033;-63
2023/02/01 06:01:03;;;;;;;4.80;1.00;;;28.20;87.60;;;;;;5016306;28;20428;-65
2023/02/01 06:03:31;;;;;;;3.72;1.00;;;28.20;88.10;;;;;;5010552;28;20045;-65
2023/02/01 06:06:00;;;;;;;5.50;1.02;;;27.90;88.60;;;;;;5028568;28;20029;-64
2023/02/01 06:08:27;;;;;;;5.22;1.30;;;27.80;90.10;;;;;;5012805;28;20112;-64
2023/02/01 06:11:05;;;;;;;7.75;1.00;;;27.90;90.30;;;;;;4990692;28;20026;-63
2023/02/01 06:13:32;;;;;;;5.20;0.98;;;28.00;90.60;;;;;;5020600;28;20524;-64
2023/02/01 06:16:00;;;;;;;4.28;1.00;;;27.90;90.50;;;;;;5011367;28;20073;-63
2023/02/01 06:18:27;;;;;;;4.60;0.80;;;27.70;91.40;;;;;;5014086;28;20037;-64
2023/02/01 06:21:02;;;;;;;2.38;0.80;;;27.70;91.80;;;;;;5014661;28;20052;-64
2023/02/01 06:23:30;;;;;;;6.43;1.02;;;27.60;91.50;;;;;;5014744;28;20068;-64
2023/02/01 06:26:09;;;;;;;4.10;0.90;;;27.60;92.10;;;;;;5020862;28;20021;-64
2023/02/01 06:28:38;;;;;;;6.18;1.20;;;27.50;91.90;;;;;;5004989;28;20483;-64
2023/02/01 06:31:07;;;;;;;6.78;1.30;;;27.30;92.70;;;;;;5021974;28;20030;-65
2023/02/01 06:33:38;;;;;;;4.47;1.38;;;27.30;92.60;;;;;;5003992;28;20025;-64
2023/02/01 06:36:07;;;;;;;3.20;0.95;;;27.40;93.10;;;;;;5012096;28;20112;-64
2023/02/01 06:38:35;;;;;;;5.50;1.40;;;27.50;93.40;;;;;;5013257;28;20026;-64
2023/02/01 06:41:04;;;;;;;8.32;1.55;;;27.70;92.10;;;;;;5015559;28;20108;-64
2023/02/01 06:43:34;;;;;;;2.83;1.23;;;27.80;91.90;;;;;;5003369;28;20037;-65
2023/02/01 06:46:04;;;;;;;5.68;1.23;;;27.70;92.30;;;;;;4994321;28;20025;-65
2023/02/01 06:48:32;;;;;;;6.82;1.35;;;27.60;92.20;;;;;;4987834;28;20401;-66
2023/02/01 06:50:59;;;;;;;2.08;0.93;;;27.70;92.90;;;;;;5011226;28;20022;-70
2023/02/01 06:53:27;;;;;;;6.72;1.30;;;27.80;92.10;;;;;;5012149;28;20030;-66
2023/02/01 06:56:00;;;;;;;3.92;1.30;;;27.90;92.70;;;;;;5017543;28;20022;-64
2023/02/01 06:58:32;;;;;;;5.10;1.17;;;28.00;92.30;;;;;;5012208;28;20359;-65
2023/02/01 07:01:06;;;;;;;6.45;1.10;;;27.70;92.60;;;;;;5005330;28;20032;-64
2023/02/01 07:03:33;;;;;;;6.72;1.83;;;27.60;93.00;;;;;;5019217;28;20516;-64
2023/02/01 07:06:00;;;;;;;6.28;1.17;;;27.60;93.40;;;;;;5009641;28;20040;-64
2023/02/01 07:08:33;;;;;;;4.10;1.48;;;27.50;93.80;;;;;;5024173;28;20021;-69
2023/02/01 07:11:09;;;;;;;9.55;1.60;;;27.60;93.10;;;;;;4997290;28;20139;-64
2023/02/01 07:13:37;;;;;;;4.50;1.48;;;27.60;93.10;;;;;;5022434;28;20038;-62
2023/02/01 07:16:08;;;;;;;4.25;1.20;;;27.40;93.40;;;;;;5019080;28;20093;-62
2023/02/01 07:18:36;;;;;;;5.38;1.67;;;27.30;94.10;;;;;;5029437;28;20041;-61
2023/02/01 07:21:03;;;;;;;7.65;1.50;;;27.10;95.00;;;;;;5017316;28;20025;-62
2023/02/01 07:23:31;;;;;;;3.85;1.35;;;27.20;94.80;;;;;;5008098;28;20057;-62
2023/02/01 07:26:01;;;;;;;7.78;1.95;;;27.30;94.50;;;;;;5024852;28;20442;-61
2023/02/01 07:28:31;;;;;;;5.25;1.70;;;27.10;94.60;;;;;;5024319;28;20510;-61
2023/02/01 07:31:15;;;;;;;2.95;1.10;;;26.90;95.10;;;;;;5013617;28;20028;-61
2023/02/01 07:33:42;;;;;;;7.30;1.52;;;26.60;96.30;;;;;;5011885;28;20025;-62
2023/02/01 07:36:14;;;;;;;8.15;1.60;;;26.60;96.40;;;;;;5009793;28;20037;-62
2023/02/01 07:38:41;;;;;;;8.75;1.40;;;26.60;96.30;;;;;;5005513;28;20034;-63
2023/02/01 07:41:09;;;;;;;4.80;1.40;;;26.30;96.00;;;;;;5012280;28;20034;-62
2023/02/01 07:43:37;;;;;;;5.53;1.33;;;26.20;96.70;;;;;;5007190;28;20038;-62
2023/02/01 07:46:05;;;;;;;3.88;1.65;;;26.00;97.20;;;;;;5008812;28;20618;-62
2023/02/01 07:48:36;;;;;;;4.78;1.40;;;25.90;98.10;;;;;;5022549;28;20442;-62
2023/02/01 07:51:10;;;;;;;4.10;1.58;;;25.70;98.50;;;;;;5015329;28;20052;-63
2023/02/01 07:53:38;;;;;;;3.38;1.38;;;25.50;99.20;;;;;;5008685;28;20029;-63
2023/02/01 07:56:22;;;;;;;3.78;1.40;;;25.30;99.80;;;;;;5012135;28;20747;-63
2023/02/01 07:58:51;;;;;;;5.93;1.25;;;25.30;99.90;;;;;;5019955;28;20025;-62
2023/02/01 08:01:23;;;;;;;7.70;1.63;;;25.20;99.90;;;;;;5008814;28;20167;-63
2023/02/01 08:03:54;;;;;;;6.18;1.55;;;25.10;99.90;;;;;;5022411;28;20041;-63
2023/02/01 08:06:23;;;;;;;6.00;1.60;;;25.00;99.90;;;;;;5018191;28;20179;-65
2023/02/01 08:08:51;;;;;;;5.15;1.67;;;24.90;99.90;;;;;;5012356;28;20544;-62
2023/02/01 08:11:21;;;;;;;5.32;1.08;;;24.80;99.90;;;;;;5015004;28;20553;-63
2023/02/01 08:13:48;;;;;;;5.70;1.23;;;24.80;99.90;;;;;;5008061;28;20042;-62
2023/02/01 08:16:17;;;;;;;6.00;1.27;;;24.60;99.90;;;;;;5011196;28;20030;-62
2023/02/01 08:18:45;;;;;;;5.68;1.67;;;24.60;99.90;;;;;;5018557;28;20756;-60
2023/02/01 08:21:48;;;;;;;5.85;1.50;;;24.50;99.90;;;;;;5017917;28;20127;-59
2023/02/01 08:24:15;;;;;;;6.05;1.60;;;24.50;99.90;;;;;;5016237;28;20072;-60
2023/02/01 08:26:43;;;;;;;3.53;1.20;;;24.50;99.90;;;;;;5017538;28;20029;-60
2023/02/01 08:29:12;;;;;;;12.63;1.30;;;24.50;99.90;;;;;;5016575;28;20032;-62
2023/02/01 08:31:43;;;;;;;4.90;2.15;;;24.40;99.90;;;;;;5020577;28;20026;-62
2023/02/01 08:34:11;;;;;;;8.93;2.53;;;24.40;99.90;;;;;;5009968;28;20041;-61
2023/02/01 08:36:40;;;;;;;14.02;1.58;;;24.30;99.90;;;;;;5012349;28;20028;-64
2023/02/01 08:39:09;;;;;;;4.65;1.40;;;24.30;99.90;;;;;;5007647;28;20029;-64
2023/02/01 08:41:37;;;;;;;5.30;1.80;;;24.20;99.90;;;;;;5002137;28;20108;-61
2023/02/01 08:44:05;;;;;;;4.13;1.17;;;24.10;99.90;;;;;;5010013;28;20390;-62
2023/02/01 08:46:32;;;;;;;5.28;1.65;;;24.00;99.90;;;;;;5018242;28;20477;-62
2023/02/01 08:48:59;;;;;;;9.55;1.30;;;24.00;99.90;;;;;;5021490;28;20029;-62
2023/02/01 08:51:27;;;;;;;4.03;1.15;;;23.90;99.90;;;;;;5017394;28;20034;-62
2023/02/01 08:53:54;;;;;;;6.60;1.40;;;23.80;99.90;;;;;;5003554;28;20136;-63
2023/02/01 08:56:21;;;;;;;6.90;1.42;;;23.80;99.90;;;;;;5009129;28;20017;-63
2023/02/01 08:58:49;;;;;;;4.45;1.42;;;23.60;99.90;;;;;;5003905;28;20056;-63
2023/02/01 09:01:17;;;;;;;7.60;1.65;;;23.60;99.90;;;;;;5010448;28;20093;-62
2023/02/01 09:03:44;;;;;;;4.57;1.27;;;23.50;99.90;;;;;;4988385;28;20049;-64
2023/02/01 09:06:14;;;;;;;8.32;1.52;;;23.40;99.90;;;;;;5006291;28;20026;-63
2023/02/01 09:08:42;;;;;;;8.90;1.55;;;23.30;99.90;;;;;;5005813;28;20078;-60
2023/02/01 09:11:14;;;;;;;6.63;1.60;;;23.20;99.90;;;;;;5005558;28;20026;-64
2023/02/01 09:13:42;;;;;;;5.95;1.35;;;23.20;99.90;;;;;;5012583;28;20046;-62
2023/02/01 09:16:10;;;;;;;4.53;2.00;;;23.00;99.90;;;;;;5016908;28;20032;-61
2023/02/01 09:18:37;;;;;;;4.50;1.48;;;23.00;99.90;;;;;;5007853;28;20022;-62
2023/02/01 09:21:07;;;;;;;6.85;1.73;;;22.90;99.90;;;;;;5008244;28;20484;-62
2023/02/01 09:23:35;;;;;;;4.80;1.60;;;22.80;99.90;;;;;;5011867;28;20118;-61
2023/02/01 09:26:04;;;;;;;5.40;1.63;;;22.70;99.90;;;;;;5003634;28;20052;-62
2023/02/01 09:28:31;;;;;;;4.38;1.58;;;22.70;99.90;;;;;;5006979;28;20022;-62
2023/02/01 09:31:03;;;;;;;4.30;1.58;;;22.70;99.90;;;;;;5006771;28;20014;-63
2023/02/01 09:33:31;;;;;;;6.13;1.50;;;22.70;99.90;;;;;;5020152;28;20017;-62
2023/02/01 09:36:00;;;;;;;5.50;1.85;;;22.70;99.90;;;;;;5013259;28;20153;-61
2023/02/01 09:38:27;;;;;;;6.65;1.40;;;22.60;99.90;;;;;;5012590;28;20029;-62
2023/02/01 09:40:56;;;;;;;6.95;1.27;;;22.60;99.90;;;;;;5009422;28;20033;-62
2023/02/01 09:43:40;;;;;;;9.90;1.48;;;22.50;99.90;;;;;;4995587;28;20044;-61
2023/02/01 09:46:29;;;;;;;3.60;1.60;;;22.50;99.90;;;;;;5015050;28;20034;-61
2023/02/01 09:49:01;;;;;;;6.82;1.40;;;22.40;99.90;;;;;;4987398;28;20018;-61
2023/02/01 09:51:36;;;;;;;6.00;1.80;;;22.40;99.90;;;;;;5013891;28;20080;-61
2023/02/01 09:54:11;;;;;;;4.35;1.30;;;22.30;99.90;;;;;;5016825;28;20533;-62
2023/02/01 09:57:03;;;;;;;5.55;1.95;;;22.20;99.90;;;;;;5013546;28;20032;-63
2023/02/01 09:59:44;;;;;;;10.43;2.00;;;22.10;99.90;;;;;;5018350;28;20410;-64
2023/02/01 10:02:26;;;;;;;7.50;1.70;;;22.00;99.90;;;;;;5011428;28;20490;-62
2023/02/01 10:04:58;;;;;;;6.38;1.83;;;21.90;99.90;;;;;;5007614;28;20065;-63
2023/02/01 10:07:59;;;;;;;5.43;1.35;;;21.90;99.90;;;;;;5011134;28;20033;-61
2023/02/01 10:10:50;;;;;;;6.80;1.85;;;21.80;99.90;;;;;;5011262;28;20037;-61
2023/02/01 10:13:27;;;;;;;7.75;1.60;;;21.80;99.90;;;;;;5005740;28;20053;-62
2023/02/01 10:16:11;;;;;;;10.00;2.08;;;21.70;99.90;;;;;;5015568;28;20025;-61
2023/02/01 10:18:48;;;;;;;10.35;1.65;;;21.60;99.90;;;;;;5013019;28;20064;-63
2023/02/01 10:21:47;;;;;;;6.28;1.50;;;21.60;99.90;;;;;;5010363;28;20017;-62
2023/02/01 10:24:23;;;;;;;7.22;1.50;;;21.50;99.90;;;;;;5009445;28;20046;-62
2023/02/01 10:27:20;;;;;;;6.72;1.30;;;21.50;99.90;;;;;;5008457;28;20029;-62
2023/02/01 10:30:04;;;;;;;9.40;2.13;;;21.50;99.90;;;;;;5011911;28;20486;-60
2023/02/01 10:32:35;;;;;;;3.53;1.52;;;21.60;99.90;;;;;;4995183;28;20037;-62
2023/02/01 10:35:19;;;;;;;6.85;1.45;;;21.60;99.90;;;;;;5000003;28;20053;-60
2023/02/01 10:37:46;;;;;;;4.07;1.45;;;21.70;99.90;;;;;;5015796;28;20018;-60
2023/02/01 10:40:19;;;;;;;6.93;2.38;;;21.80;99.90;;;;;;5009543;28;20060;-61
2023/02/01 10:42:47;;;;;;;6.35;1.67;;;21.90;99.90;;;;;;5013869;28;20037;-62
2023/02/01 10:45:22;;;;;;;7.88;1.75;;;22.00;99.90;;;;;;4993609;28;20029;-65
2023/02/01 10:47:50;;;;;;;;;;;22.00;99.90;;;;;;5016341;28;20025;-61
2023/02/01 10:50:58;;;;;;;3.20;1.48;;;22.10;99.90;;;;;;5009654;28;19931;-62
2023/02/01 10:53:35;;;;;;;6.00;1.80;;;22.20;99.90;;;;;;4957387;28;20038;-62
2023/02/01 10:56:11;;;;;;;4.78;1.30;;;22.30;99.90;;;;;;5015553;28;20021;-62
2023/02/01 10:58:45;;;;;;;6.75;1.52;;;22.40;99.90;;;;;;5021940;28;20447;-62
2023/02/01 11:01:34;;;;;;;6.70;1.75;;;22.40;99.90;;;;;;5007820;28;20482;-61
2023/02/01 11:04:26;;;;;;;7.85;1.42;;;22.50;99.90;;;;;;5015071;28;20061;-62
2023/02/01 11:07:09;;;;;;;5.95;1.60;;;22.50;99.90;;;;;;5015341;28;20113;-61
2023/02/01 11:09:41;;;;;;;9.50;1.63;;;22.50;99.90;;;;;;5010863;28;20027;-61
2023/02/01 11:12:26;;;;;;;7.80;1.67;;;22.60;99.90;;;;;;5009086;28;20109;-62
2023/02/01 11:14:59;;;;;;;9.23;1.95;;;22.70;99.90;;;;;;5025827;28;20029;-61
2023/02/01 11:17:36;;;;;;;8.02;1.35;;;22.60;99.90;;;;;;5021933;28;20507;-61
2023/02/01 11:20:18;;;;;;;10.32;2.58;;;22.70;99.90;;;;;;4998221;28;20137;-62
2023/02/01 11:22:58;;;;;;;7.53;2.13;;;22.70;99.90;;;;;;5023695;28;20026;-61
2023/02/01 11:25:26;;;;;;;4.93;1.80;;;22.70;99.90;;;;;;5008408;28;20038;-61
2023/02/01 11:27:56;;;;;;;7.30;1.42;;;22.70;99.90;;;;;;5013605;28;20034;-61
2023/02/01 11:30:40;;;;;;;6.75;1.58;;;22.70;99.90;;;;;;5012070;28;20025;-61
2023/02/01 11:33:14;;;;;;;5.97;1.80;;;22.70;99.90;;;;;;5011381;28;20032;-62
2023/02/01 11:35:43;;;;;;;8.85;1.80;;;22.70;99.90;;;;;;5014643;28;20156;-61
2023/02/01 11:38:27;;;;;;;5.20;1.63;;;22.80;99.90;;;;;;5009950;28;20030;-61
2023/02/01 11:40:55;;;;;;;5.57;1.50;;;22.80;99.90;;;;;;5019955;28;20018;-62
2023/02/01 11:43:28;;;;;;;8.40;1.50;;;22.70;99.90;;;;;;5020401;28;20038;-61
2023/02/01 11:46:03;;;;;;;4.07;1.75;;;22.80;99.90;;;;;;5023417;28;20020;-62
2023/02/01 11:48:33;;;;;;;8.65;1.98;;;22.80;99.90;;;;;;5008628;28;20026;-62
2023/02/01 11:51:04;;;;;;;3.05;1.50;;;22.80;99.90;;;;;;5010742;28;20050;-62
2023/02/01 11:54:06;;;;;;;7.80;2.00;;;22.80;99.90;;;;;;5010590;28;20109;-63
2023/02/01 11:56:42;;;;;;;9.40;2.38;;;22.80;99.90;;;;;;5004978;28;20149;-61
2023/02/01 11:59:23;;;;;;;6.82;2.08;;;22.80;99.90;;;;;;5017980;28;20033;-62
2023/02/01 12:02:14;;;;;;;6.18;1.38;;;22.80;99.90;;;;;;5013328;28;20033;-62
2023/02/01 12:05:26;;;;;;;7.80;1.80;;;22.80;99.90;;;;;;4994208;28;20041;-62
2023/02/01 12:08:16;;;;;;;8.93;1.88;;;22.80;99.90;;;;;;4982581;28;20034;-62
2023/02/01 12:10:43;;;;;;;7.47;1.60;;;22.80;99.90;;;;;;5010576;28;20026;-62
2023/02/01 12:13:18;;;;;;;9.25;2.05;;;22.80;99.90;;;;;;5010977;28;20044;-62
2023/02/01 12:15:59;;;;;;;7.88;1.70;;;22.80;99.90;;;;;;5014981;28;20105;-62
2023/02/01 12:18:44;;;;;;;5.97;1.80;;;22.80;99.90;;;;;;5011086;28;20029;-62
2023/02/01 12:21:23;;;;;;;10.10;1.95;;;22.80;99.90;;;;;;5023067;28;20444;-62
2023/02/01 12:24:08;;;;;;;15.15;2.75;;;22.80;99.90;;;;;;5014341;28;20038;-61
2023/02/01 12:27:02;;;;;;;12.27;2.20;;;22.80;99.90;;;;;;5013773;28;20462;-61
2023/02/01 12:29:51;;;;;;;9.35;2.15;;;22.80;99.90;;;;;;4994487;28;20578;-61
2023/02/01 12:32:45;;;;;;;9.68;1.60;;;22.80;99.90;;;;;;5024214;28;20064;-61
2023/02/01 12:35:40;;;;;;;4.57;1.73;;;22.80;99.90;;;;;;5010051;28;20022;-61
2023/02/01 12:38:36;;;;;;;8.63;1.85;;;22.80;99.90;;;;;;5017440;28;20382;-60
2023/02/01 12:41:21;;;;;;;11.23;2.10;;;22.70;99.90;;;;;;4988616;28;20143;-63
2023/02/01 12:44:08;;;;;;;9.05;2.40;;;22.70;99.90;;;;;;5006885;28;20033;-61
2023/02/01 12:46:38;;;;;;;6.88;2.03;;;22.80;99.90;;;;;;5011763;28;20038;-61
2023/02/01 12:49:34;;;;;;;6.00;2.10;;;22.80;99.90;;;;;;5009798;28;20034;-61
2023/02/01 12:52:06;;;;;;;6.18;2.05;;;22.80;99.90;;;;;;5011437;28;20026;-61
2023/02/01 12:55:00;;;;;;;9.05;2.25;;;22.80;99.90;;;;;;5028845;28;20025;-61
2023/02/01 12:57:43;;;;;;;6.45;1.42;;;22.80;99.90;;;;;;5029004;28;20018;-61
2023/02/01 13:00:40;;;;;;;11.43;1.48;;;22.70;99.90;;;;;;5008808;28;20026;-61
2023/02/01 13:03:44;;;;;;;7.07;2.53;;;22.80;99.90;;;;;;5009906;28;20495;-62
2023/02/01 13:06:32;;;;;;;9.18;1.40;;;22.80;99.90;;;;;;4967080;28;20455;-64
2023/02/01 13:09:17;;;;;;;4.28;1.50;;;22.80;99.90;;;;;;5011807;28;20030;-62
2023/02/01 13:11:47;;;;;;;4.43;1.88;;;22.80;99.90;;;;;;5013066;28;20409;-62
2023/02/01 13:14:36;;;;;;;6.25;1.42;;;22.70;99.90;;;;;;5021514;28;20045;-62
2023/02/01 13:17:17;;;;;;;8.50;1.75;;;22.70;99.90;;;;;;5033078;28;20029;-62
2023/02/01 13:19:51;;;;;;;9.68;1.92;;;22.70;99.90;;;;;;5014998;28;20107;-62
2023/02/01 13:22:35;;;;;;;8.13;1.73;;;22.70;99.90;;;;;;5023956;28;20041;-62
2023/02/01 13:25:29;;;;;;;5.05;1.25;;;22.70;99.90;;;;;;5012865;28;20041;-63
2023/02/01 13:28:06;;;;;;;6.13;1.65;;;22.70;99.90;;;;;;5021962;28;20025;-62
2023/02/01 13:31:17;;;;;;;6.50;1.60;;;22.70;99.90;;;;;;5032918;28;20109;-62
2023/02/01 13:34:21;;;;;;;5.60;1.55;;;22.70;99.90;;;;;;4993109;28;20073;-62
2023/02/01 13:37:09;;;;;;;10.32;1.45;;;22.70;99.90;;;;;;5012555;28;20391;-62
2023/02/01 13:39:57;;;;;;;4.40;1.50;;;22.70;99.90;;;;;;5008420;28;20489;-62
2023/02/01 13:42:31;;;;;;;5.43;1.65;;;22.70;99.90;;;;;;5011990;28;20073;-62
2023/02/01 13:45:15;;;;;;;4.40;1.48;;;22.70;99.90;;;;;;5014407;28;20204;-62